Time;durP1;ratioP1;P1;durP2;ratioP2;P2;SDS_P1;SDS_P2;PMS_P1;PMS_P2;Temp;Humidity;BMP_temperature;BMP_pressure;BME280_temperature;BME280_humidity;BME280_pressure;Samples;Min_cycle;Max_cycle;Signal;HPM_P1;HPM_P2
2022/05/28 00:01:06;;;;;;;3.58;3.28;;;12.80;99.90;;;;;;5095810;28;20176;-76
2022/05/28 00:03:33;;;;;;;2.92;2.80;;;12.70;99.90;;;;;;5098988;28;20186;-76
2022/05/28 00:05:59;;;;;;;3.20;3.00;;;12.70;99.90;;;;;;5095842;28;20174;-76
2022/05/28 00:08:25;;;;;;;4.10;3.65;;;12.80;99.90;;;;;;5101251;28;20189;-76
2022/05/28 00:10:54;;;;;;;3.33;3.08;;;12.80;99.90;;;;;;5094500;28;20183;-75
2022/05/28 00:13:20;;;;;;;5.28;3.65;;;12.90;99.90;;;;;;5097302;28;20180;-76
2022/05/28 00:15:45;;;;;;;3.70;3.40;;;12.90;99.90;;;;;;5090528;28;20178;-76
2022/05/28 00:18:11;;;;;;;4.00;3.70;;;12.90;99.90;;;;;;5092390;28;20211;-75
2022/05/28 00:20:37;;;;;;;4.88;3.00;;;12.90;99.90;;;;;;5089178;28;20202;-75
2022/05/28 00:23:04;;;;;;;3.67;2.95;;;12.90;99.90;;;;;;5105432;28;20178;-75
2022/05/28 00:25:30;;;;;;;3.33;2.92;;;12.90;99.90;;;;;;5093118;28;20175;-75
2022/05/28 00:27:56;;;;;;;3.47;3.17;;;13.10;99.90;;;;;;5092820;28;20197;-76
2022/05/28 00:30:22;;;;;;;3.40;2.85;;;13.10;99.90;;;;;;5095264;28;20198;-77
2022/05/28 00:32:48;;;;;;;4.22;3.17;;;13.10;99.90;;;;;;5102480;28;20219;-76
2022/05/28 00:35:16;;;;;;;3.67;3.15;;;13.20;99.90;;;;;;5088836;28;20208;-76
2022/05/28 00:37:44;;;;;;;3.85;3.45;;;13.10;99.90;;;;;;5093454;28;20644;-76
2022/05/28 00:40:15;;;;;;;3.15;2.95;;;13.20;99.90;;;;;;5098301;28;20197;-76
2022/05/28 00:42:40;;;;;;;4.35;3.03;;;13.10;99.90;;;;;;5081939;28;20186;-76
2022/05/28 00:45:07;;;;;;;3.50;3.03;;;13.00;99.90;;;;;;5095432;28;20181;-76
2022/05/28 00:47:33;;;;;;;4.60;2.95;;;13.10;99.90;;;;;;5092183;28;20184;-75
2022/05/28 00:49:59;;;;;;;2.80;2.58;;;13.10;99.90;;;;;;5092803;28;20281;-76
2022/05/28 00:52:26;;;;;;;2.97;2.78;;;13.10;99.90;;;;;;5094306;28;20609;-76
2022/05/28 00:54:53;;;;;;;2.72;2.53;;;13.00;99.90;;;;;;5092085;28;20596;-75
2022/05/28 00:57:21;;;;;;;2.92;2.72;;;13.10;99.90;;;;;;5097578;28;20645;-75
2022/05/28 00:59:47;;;;;;;2.70;2.50;;;13.10;99.90;;;;;;5105527;28;20206;-75
2022/05/28 01:02:12;;;;;;;3.72;2.70;;;13.00;99.90;;;;;;5098617;28;20273;-75
2022/05/28 01:04:56;;;;;;;4.43;2.47;;;13.00;99.90;;;;;;5089058;28;20174;-75
2022/05/28 01:07:46;;;;;;;2.92;2.50;;;13.00;99.90;;;;;;5101190;28;20181;-75
2022/05/28 01:10:32;;;;;;;2.63;2.42;;;13.00;99.90;;;;;;5093708;28;20236;-75
2022/05/28 01:13:22;;;;;;;5.30;2.70;;;12.90;99.90;;;;;;5090729;28;20174;-76
2022/05/28 01:15:54;;;;;;;2.22;2.13;;;13.00;99.90;;;;;;5086711;28;20196;-75
2022/05/28 01:18:33;;;;;;;3.05;2.45;;;13.00;99.90;;;;;;5105140;28;20217;-75
2022/05/28 01:21:15;;;;;;;5.65;2.75;;;13.00;99.90;;;;;;5095209;28;20652;-75
2022/05/28 01:23:52;;;;;;;4.20;2.40;;;12.90;99.90;;;;;;5085879;28;20702;-75
2022/05/28 01:26:35;;;;;;;4.68;2.55;;;12.90;99.90;;;;;;5098525;28;20189;-75
2022/05/28 01:29:06;;;;;;;3.33;2.33;;;12.90;99.90;;;;;;5093095;28;20237;-75
2022/05/28 01:31:33;;;;;;;3.42;2.22;;;12.90;99.90;;;;;;5094967;28;20218;-75
2022/05/28 01:34:02;;;;;;;2.38;2.05;;;12.90;99.90;;;;;;5092453;28;20202;-76
2022/05/28 01:36:30;;;;;;;3.55;2.72;;;12.90;99.90;;;;;;5104552;28;20183;-76
2022/05/28 01:38:56;;;;;;;2.53;2.33;;;12.90;99.90;;;;;;5096889;28;20680;-75
2022/05/28 01:41:23;;;;;;;3.33;2.72;;;12.90;99.90;;;;;;5094118;28;20189;-76
2022/05/28 01:43:51;;;;;;;4.57;2.45;;;12.80;99.90;;;;;;5103336;28;20182;-75
2022/05/28 01:46:19;;;;;;;3.33;2.55;;;12.70;99.90;;;;;;5110091;28;20257;-76
2022/05/28 01:48:47;;;;;;;3.35;2.35;;;12.70;99.90;;;;;;5097740;27;20284;-76
2022/05/28 01:51:14;;;;;;;3.13;1.98;;;12.70;99.90;;;;;;5097027;28;20178;-76
2022/05/28 01:54:15;;;;;;;3.22;2.60;;;12.70;99.90;;;;;;5106559;28;20187;-76
2022/05/28 01:56:36;;;;;;;3.08;2.30;;;12.70;99.90;;;;;;5102143;28;20186;-76
2022/05/28 01:59:01;;;;;;;3.95;2.13;;;12.60;99.90;;;;;;5085489;28;20241;-76
2022/05/28 02:01:27;;;;;;;2.42;2.33;;;12.50;99.90;;;;;;5100559;28;20218;-76
2022/05/28 02:03:58;;;;;;;3.00;2.40;;;12.50;99.90;;;;;;5096347;28;20257;-76
2022/05/28 02:06:25;;;;;;;2.53;2.33;;;12.40;99.90;;;;;;5092290;28;20961;-76
2022/05/28 02:08:51;;;;;;;2.67;2.00;;;12.20;99.90;;;;;;5074423;28;20203;-76
2022/05/28 02:11:21;;;;;;;2.90;2.33;;;12.20;99.90;;;;;;5090576;28;20194;-76
2022/05/28 02:14:09;;;;;;;3.55;2.72;;;12.10;99.90;;;;;;5097058;28;20175;-77
2022/05/28 02:16:45;;;;;;;3.58;2.20;;;12.00;99.90;;;;;;5095508;28;20186;-76
2022/05/28 02:19:29;;;;;;;4.90;2.25;;;12.00;99.90;;;;;;5106232;28;20197;-75
2022/05/28 02:22:06;;;;;;;2.83;2.00;;;12.00;99.90;;;;;;5095995;28;20252;-75
2022/05/28 02:24:48;;;;;;;3.58;2.20;;;12.00;99.90;;;;;;5096154;28;20185;-75
2022/05/28 02:27:18;;;;;;;2.70;2.50;;;12.00;99.90;;;;;;5093943;28;20179;-75
2022/05/28 02:29:44;;;;;;;2.92;1.83;;;12.00;99.90;;;;;;5097397;28;20197;-75
2022/05/28 02:32:22;;;;;;;3.55;2.33;;;12.10;99.90;;;;;;5100384;28;20186;-75
2022/05/28 02:34:50;;;;;;;3.15;2.53;;;12.00;99.90;;;;;;5086936;28;20588;-75
2022/05/28 02:37:18;;;;;;;2.72;2.22;;;12.10;99.90;;;;;;5100979;28;20171;-75
2022/05/28 02:39:43;;;;;;;3.55;2.40;;;12.10;99.90;;;;;;5100021;28;20194;-75
2022/05/28 02:42:09;;;;;;;5.13;3.08;;;12.10;99.90;;;;;;5091317;28;20171;-76
2022/05/28 02:44:35;;;;;;;3.65;2.33;;;12.10;99.90;;;;;;5098580;28;20212;-75
2022/05/28 02:47:00;;;;;;;2.90;2.28;;;12.00;99.90;;;;;;5095111;28;20261;-75
2022/05/28 02:49:26;;;;;;;5.18;2.45;;;12.00;99.90;;;;;;5107245;28;20205;-75
2022/05/28 02:51:53;;;;;;;3.72;2.20;;;11.90;99.90;;;;;;5100289;28;20183;-75
2022/05/28 02:54:19;;;;;;;5.05;3.03;;;11.90;99.90;;;;;;5099836;28;20650;-75
2022/05/28 02:56:45;;;;;;;2.47;2.28;;;11.80;99.90;;;;;;5093460;28;20185;-76
2022/05/28 02:59:11;;;;;;;4.38;2.60;;;11.60;99.90;;;;;;5083002;28;20222;-76
2022/05/28 03:01:37;;;;;;;2.67;2.47;;;11.50;99.90;;;;;;5086136;28;20178;-75
2022/05/28 03:04:05;;;;;;;4.25;2.67;;;11.50;99.90;;;;;;5090483;28;20533;-75
2022/05/28 03:06:31;;;;;;;5.28;2.80;;;11.40;99.90;;;;;;5093394;28;20179;-75
2022/05/28 03:08:57;;;;;;;2.97;2.70;;;11.40;99.90;;;;;;5095111;28;20379;-75
2022/05/28 03:11:22;;;;;;;4.05;2.60;;;11.40;99.90;;;;;;5088621;28;20265;-76
2022/05/28 03:13:48;;;;;;;5.05;3.10;;;11.30;99.90;;;;;;5101345;28;20533;-75
2022/05/28 03:16:14;;;;;;;2.97;2.38;;;11.20;99.90;;;;;;5095246;28;20182;-76
2022/05/28 03:18:40;;;;;;;3.45;2.72;;;11.10;99.90;;;;;;5090789;28;20277;-76
2022/05/28 03:21:07;;;;;;;2.83;2.53;;;11.00;99.90;;;;;;5088900;28;20257;-76
2022/05/28 03:23:33;;;;;;;5.70;2.95;;;10.90;99.90;;;;;;5086112;28;20592;-76
2022/05/28 03:26:18;;;;;;;8.50;3.13;;;10.80;99.90;;;;;;5083326;28;20257;-76
2022/05/28 03:28:44;;;;;;;3.17;2.70;;;10.70;99.90;;;;;;5088156;28;20217;-77
2022/05/28 03:31:10;;;;;;;3.25;2.70;;;10.70;99.90;;;;;;5083812;28;20194;-76
2022/05/28 03:33:35;;;;;;;2.90;2.60;;;10.60;99.90;;;;;;5085259;28;20269;-76
2022/05/28 03:36:01;;;;;;;4.13;2.80;;;10.50;99.90;;;;;;5085294;28;20175;-76
2022/05/28 03:38:27;;;;;;;2.58;2.33;;;10.50;99.90;;;;;;5079967;28;20257;-76
2022/05/28 03:40:52;;;;;;;2.83;2.08;;;10.40;99.90;;;;;;5084628;28;20653;-77
2022/05/28 03:43:18;;;;;;;6.57;2.90;;;10.40;99.90;;;;;;5086709;28;20234;-76
2022/05/28 03:45:44;;;;;;;2.95;2.65;;;10.50;99.90;;;;;;5082720;28;20260;-75
2022/05/28 03:48:11;;;;;;;2.78;2.58;;;10.60;99.90;;;;;;5080047;28;20175;-76
2022/05/28 03:50:37;;;;;;;3.50;2.30;;;10.70;99.90;;;;;;5075747;28;20249;-76
2022/05/28 03:53:03;;;;;;;3.13;2.83;;;10.80;99.90;;;;;;5078812;28;20193;-76
2022/05/28 03:55:29;;;;;;;5.85;2.90;;;10.80;99.90;;;;;;5079892;28;20175;-76
2022/05/28 03:57:54;;;;;;;4.90;2.03;;;10.80;99.90;;;;;;5077287;28;20317;-76
2022/05/28 04:00:21;;;;;;;4.07;2.92;;;10.80;99.90;;;;;;5076119;28;20198;-76
2022/05/28 04:02:47;;;;;;;2.65;2.45;;;10.70;99.90;;;;;;5075455;28;20183;-76
2022/05/28 04:05:13;;;;;;;6.50;2.90;;;10.70;99.90;;;;;;5080373;28;21325;-75
2022/05/28 04:07:39;;;;;;;4.47;2.55;;;10.70;99.90;;;;;;5073931;28;20179;-75
2022/05/28 04:10:06;;;;;;;4.50;2.35;;;10.80;99.90;;;;;;5078455;28;20293;-75
2022/05/28 04:12:32;;;;;;;5.05;2.80;;;10.80;99.90;;;;;;5078314;28;20185;-75
2022/05/28 04:14:58;;;;;;;7.15;3.42;;;10.90;99.90;;;;;;5076730;28;20183;-75
2022/05/28 04:17:24;;;;;;;4.47;2.85;;;10.90;99.90;;;;;;5077565;28;20555;-76
2022/05/28 04:19:49;;;;;;;2.25;1.98;;;10.90;99.90;;;;;;5077695;28;20191;-76
2022/05/28 04:22:15;;;;;;;5.03;2.90;;;11.00;99.90;;;;;;5080811;28;20456;-75
2022/05/28 04:24:41;;;;;;;4.03;2.38;;;11.10;99.90;;;;;;5086500;28;20175;-76
2022/05/28 04:27:07;;;;;;;4.80;2.45;;;11.20;99.90;;;;;;5089265;28;20233;-77
2022/05/28 04:29:32;;;;;;;2.92;2.08;;;11.30;99.90;;;;;;5095481;28;20417;-76
2022/05/28 04:31:58;;;;;;;5.30;2.10;;;11.30;99.90;;;;;;5096017;28;20625;-76
2022/05/28 04:34:24;;;;;;;4.65;2.72;;;11.30;99.90;;;;;;5095131;28;20549;-76
2022/05/28 04:36:50;;;;;;;3.22;2.80;;;11.30;99.90;;;;;;5102757;28;20186;-76
2022/05/28 04:39:15;;;;;;;4.25;2.47;;;11.30;99.90;;;;;;5104238;28;20726;-76
2022/05/28 04:41:41;;;;;;;2.75;2.30;;;11.20;99.90;;;;;;5090447;28;20197;-76
2022/05/28 04:44:07;;;;;;;3.25;2.67;;;11.10;99.90;;;;;;5096589;28;20222;-77
2022/05/28 04:46:32;;;;;;;3.58;2.03;;;11.00;99.90;;;;;;5092180;28;20178;-77
2022/05/28 04:48:58;;;;;;;4.18;2.45;;;11.00;99.90;;;;;;5105034;28;20209;-77
2022/05/28 04:51:24;;;;;;;4.07;2.65;;;11.10;99.90;;;;;;5093121;28;20186;-77
2022/05/28 04:53:49;;;;;;;5.47;2.40;;;11.10;99.90;;;;;;5093963;28;20649;-77
2022/05/28 04:56:15;;;;;;;5.93;2.47;;;11.10;99.90;;;;;;5094160;28;20190;-76
2022/05/28 04:58:42;;;;;;;5.03;2.92;;;11.10;99.90;;;;;;5108207;28;20221;-78
2022/05/28 05:01:12;;;;;;;5.22;2.80;;;11.10;99.90;;;;;;5093074;28;20180;-79
2022/05/28 05:03:37;;;;;;;2.63;2.42;;;11.10;99.90;;;;;;5096104;28;20178;-78
2022/05/28 05:06:03;;;;;;;3.90;2.05;;;11.20;99.90;;;;;;5100331;28;20667;-79
2022/05/28 05:08:30;;;;;;;5.28;2.60;;;11.20;99.90;;;;;;5099446;28;20184;-79
2022/05/28 05:10:56;;;;;;;7.13;2.92;;;11.30;99.90;;;;;;5090304;28;20638;-79
2022/05/28 05:13:22;;;;;;;5.47;2.40;;;11.30;99.90;;;;;;5103895;28;20185;-78
2022/05/28 05:15:47;;;;;;;3.20;1.98;;;11.40;99.90;;;;;;5092454;28;20213;-79
2022/05/28 05:18:13;;;;;;;3.45;2.00;;;11.40;99.90;;;;;;5094250;28;20199;-79
2022/05/28 05:20:39;;;;;;;4.95;2.22;;;11.50;99.90;;;;;;5106440;28;20289;-80
2022/05/28 05:23:05;;;;;;;5.15;2.08;;;11.60;99.90;;;;;;5104966;28;20171;-78
2022/05/28 05:25:32;;;;;;;3.25;1.80;;;11.70;99.90;;;;;;5098763;28;20175;-77
2022/05/28 05:27:57;;;;;;;2.75;2.05;;;11.80;99.90;;;;;;5094733;28;20251;-77
2022/05/28 05:30:23;;;;;;;5.65;3.00;;;11.80;99.90;;;;;;5106080;28;20617;-77
2022/05/28 05:32:48;;;;;;;6.55;2.55;;;11.80;99.90;;;;;;5101760;28;20171;-77
2022/05/28 05:35:14;;;;;;;11.57;2.60;;;11.90;99.90;;;;;;5100410;28;20187;-78
2022/05/28 05:37:40;;;;;;;4.00;2.45;;;12.00;99.90;;;;;;5092592;28;20664;-78
2022/05/28 05:40:06;;;;;;;3.05;2.15;;;12.00;99.90;;;;;;5089734;28;20259;-79
2022/05/28 05:42:32;;;;;;;4.97;2.25;;;12.10;99.90;;;;;;5094785;28;20189;-78
2022/05/28 05:44:58;;;;;;;4.38;2.30;;;12.20;99.90;;;;;;5093751;28;20183;-78
2022/05/28 05:47:23;;;;;;;4.80;2.63;;;12.30;99.90;;;;;;5099934;28;20178;-79
2022/05/28 05:49:50;;;;;;;3.55;2.70;;;12.40;99.90;;;;;;5093782;28;20681;-78
2022/05/28 05:52:16;;;;;;;2.67;2.15;;;12.50;99.90;;;;;;5102784;28;20264;-78
2022/05/28 05:54:42;;;;;;;3.97;2.35;;;12.60;99.90;;;;;;5093899;28;20197;-78
2022/05/28 05:57:08;;;;;;;4.15;2.78;;;12.70;99.90;;;;;;5093426;28;20170;-79
2022/05/28 05:59:34;;;;;;;4.20;2.30;;;12.80;99.90;;;;;;5102459;28;20210;-78
2022/05/28 06:02:00;;;;;;;5.22;3.00;;;12.90;99.90;;;;;;5104037;28;20196;-79
2022/05/28 06:04:25;;;;;;;2.78;2.45;;;12.90;99.90;;;;;;5083177;28;20310;-78
2022/05/28 06:06:51;;;;;;;6.05;2.50;;;12.80;99.90;;;;;;5089894;28;20262;-79
2022/05/28 06:09:17;;;;;;;3.22;1.80;;;12.80;99.90;;;;;;5096975;28;20209;-80
2022/05/28 06:11:42;;;;;;;4.53;2.63;;;12.90;99.90;;;;;;5103797;28;20186;-79
2022/05/28 06:14:08;;;;;;;3.05;2.25;;;12.90;99.90;;;;;;5108510;28;20187;-82
2022/05/28 06:16:34;;;;;;;5.45;2.53;;;12.90;99.90;;;;;;5117305;28;20182;-82
2022/05/28 06:19:01;;;;;;;9.07;2.65;;;12.90;99.90;;;;;;5096345;28;20227;-78
2022/05/28 06:21:27;;;;;;;4.93;2.40;;;12.90;99.90;;;;;;5099572;28;20178;-77
2022/05/28 06:23:53;;;;;;;5.60;2.72;;;13.00;99.90;;;;;;5104701;28;20177;-79
2022/05/28 06:26:19;;;;;;;5.53;2.20;;;13.10;99.90;;;;;;5093291;28;20210;-77
2022/05/28 06:28:45;;;;;;;3.80;2.28;;;13.10;99.90;;;;;;5087691;28;20256;-79
2022/05/28 06:31:12;;;;;;;2.78;1.95;;;13.20;99.90;;;;;;5090254;28;20231;-78
2022/05/28 06:33:39;;;;;;;3.13;1.85;;;13.30;99.90;;;;;;5104728;28;20174;-78
2022/05/28 06:36:06;;;;;;;3.53;1.70;;;13.40;99.90;;;;;;5101182;28;20170;-78
2022/05/28 06:38:33;;;;;;;4.72;1.98;;;13.60;99.90;;;;;;5095465;28;20190;-78
2022/05/28 06:40:59;;;;;;;4.22;1.77;;;13.70;99.90;;;;;;5103335;28;20202;-79
2022/05/28 06:43:26;;;;;;;6.88;1.65;;;13.70;99.90;;;;;;5101376;28;20178;-80
2022/05/28 06:45:51;;;;;;;2.55;1.77;;;13.80;99.90;;;;;;5105135;28;20664;-78
2022/05/28 06:48:17;;;;;;;6.50;2.20;;;13.80;99.90;;;;;;5103239;28;20186;-78
2022/05/28 06:51:01;;;;;;;3.72;1.67;;;13.80;99.90;;;;;;5099071;28;20206;-79
2022/05/28 06:53:29;;;;;;;5.47;2.00;;;13.80;99.90;;;;;;5100554;28;20179;-77
2022/05/28 06:55:55;;;;;;;4.47;2.22;;;13.80;99.90;;;;;;5096711;28;20652;-78
2022/05/28 06:58:20;;;;;;;2.88;1.48;;;13.70;99.90;;;;;;5105225;28;20237;-80
2022/05/28 07:00:46;;;;;;;2.28;1.88;;;13.90;99.90;;;;;;5098570;28;20205;-79
2022/05/28 07:03:18;;;;;;;3.30;1.30;;;14.00;99.90;;;;;;5103061;28;20174;-79
2022/05/28 07:05:43;;;;;;;1.50;1.30;;;14.00;99.90;;;;;;5104101;28;20174;-78
2022/05/28 07:08:09;;;;;;;2.13;1.30;;;14.00;99.90;;;;;;5099139;28;20171;-77
2022/05/28 07:10:38;;;;;;;2.33;1.60;;;14.00;99.90;;;;;;5099449;28;20199;-80
2022/05/28 07:13:06;;;;;;;1.92;1.33;;;14.00;99.90;;;;;;5105043;28;20173;-76
2022/05/28 07:15:32;;;;;;;1.60;1.50;;;13.90;99.90;;;;;;5097891;28;20194;-76
2022/05/28 07:17:58;;;;;;;4.10;1.50;;;13.90;99.90;;;;;;5089245;28;20198;-77
2022/05/28 07:20:23;;;;;;;3.33;1.65;;;13.90;99.90;;;;;;5105423;28;20210;-78
2022/05/28 07:22:49;;;;;;;3.53;1.70;;;13.90;99.90;;;;;;5099106;28;20245;-78
2022/05/28 07:25:14;;;;;;;6.63;1.98;;;14.00;99.90;;;;;;5093594;28;20208;-76
2022/05/28 07:27:40;;;;;;;5.22;2.60;;;14.00;99.90;;;;;;5107725;28;20232;-79
2022/05/28 07:30:06;;;;;;;3.05;2.15;;;14.00;99.90;;;;;;5094337;28;20198;-77
2022/05/28 07:32:32;;;;;;;1.92;1.50;;;14.10;99.90;;;;;;5087785;28;20186;-77
2022/05/28 07:34:59;;;;;;;4.60;1.27;;;14.20;99.90;;;;;;5096454;28;20182;-78
2022/05/28 07:37:26;;;;;;;2.53;1.45;;;14.30;99.90;;;;;;5096823;28;20178;-78
2022/05/28 07:39:51;;;;;;;2.70;1.90;;;14.40;99.90;;;;;;5103215;28;20223;-77
2022/05/28 07:42:17;;;;;;;2.95;1.42;;;14.50;99.90;;;;;;5093566;28;20656;-77
2022/05/28 07:44:43;;;;;;;2.20;1.40;;;14.50;99.90;;;;;;5094343;28;20179;-78
2022/05/28 07:47:09;;;;;;;1.23;1.13;;;14.60;99.90;;;;;;5095518;28;20646;-77
2022/05/28 07:49:36;;;;;;;1.55;1.40;;;14.90;99.90;;;;;;5103508;28;20288;-77
2022/05/28 07:52:02;;;;;;;2.42;1.52;;;15.20;99.90;;;;;;5092830;28;20265;-77
2022/05/28 07:54:28;;;;;;;3.80;1.90;;;15.40;99.90;;;;;;5104901;28;20434;-76
2022/05/28 07:56:54;;;;;;;3.25;1.50;;;15.30;99.90;;;;;;5097682;28;20243;-76
2022/05/28 07:59:19;;;;;;;3.42;1.92;;;15.40;99.90;;;;;;5088448;28;20202;-75
2022/05/28 08:01:45;;;;;;;1.85;1.50;;;15.50;99.90;;;;;;5089535;28;20215;-76
2022/05/28 08:04:11;;;;;;;1.85;1.30;;;15.70;99.90;;;;;;5090389;28;20230;-75
2022/05/28 08:06:37;;;;;;;3.00;1.70;;;15.80;99.90;;;;;;5094779;28;20182;-75
2022/05/28 08:09:05;;;;;;;3.63;1.38;;;16.00;99.90;;;;;;5087402;28;20195;-75
2022/05/28 08:11:31;;;;;;;3.50;1.73;;;16.20;99.10;;;;;;5091657;28;20179;-74
2022/05/28 08:13:58;;;;;;;2.45;1.20;;;16.30;99.20;;;;;;5101931;28;20177;-75
2022/05/28 08:16:24;;;;;;;1.65;1.23;;;16.50;98.70;;;;;;5088707;28;20235;-75
2022/05/28 08:18:49;;;;;;;2.70;1.00;;;16.70;96.60;;;;;;5100898;28;20205;-75
2022/05/28 08:23:59;;;;;;;1.42;0.85;;;16.70;98.80;;;;;;5099822;28;20181;-75
2022/05/28 08:26:25;;;;;;;1.98;1.58;;;17.20;97.90;;;;;;5093886;28;20634;-75
2022/05/28 08:28:52;;;;;;;1.27;0.95;;;17.20;98.90;;;;;;5098434;28;20266;-75
2022/05/28 08:31:19;;;;;;;13.32;1.42;;;17.20;94.90;;;;;;5101898;28;20174;-75
2022/05/28 08:33:46;;;;;;;2.63;0.77;;;17.10;93.00;;;;;;5098986;28;20486;-75
2022/05/28 08:36:12;;;;;;;3.38;1.10;;;17.00;94.00;;;;;;5104195;28;20239;-77
2022/05/28 08:38:39;;;;;;;1.48;1.05;;;17.00;93.50;;;;;;5100870;28;20217;-79
2022/05/28 08:41:21;;;;;;;2.17;1.40;;;17.10;92.70;;;;;;5105563;28;20176;-75
2022/05/28 08:44:08;;;;;;;1.23;1.02;;;17.50;92.50;;;;;;5094384;28;20176;-75
2022/05/28 08:46:36;;;;;;;2.38;1.02;;;17.80;91.20;;;;;;5109608;28;20169;-75
2022/05/28 08:49:04;;;;;;;1.83;1.02;;;17.80;91.60;;;;;;5105090;28;20291;-74
2022/05/28 08:51:49;;;;;;;1.73;1.15;;;17.80;89.80;;;;;;5106296;28;20186;-75
2022/05/28 08:54:29;;;;;;;1.13;1.00;;;17.60;90.40;;;;;;5097916;28;20593;-75
2022/05/28 08:56:59;;;;;;;1.50;1.00;;;17.40;92.30;;;;;;5094894;28;20273;-75
2022/05/28 08:59:56;;;;;;;2.10;1.27;;;17.50;91.50;;;;;;5104188;28;20201;-80
2022/05/28 09:02:40;;;;;;;2.42;1.40;;;17.30;90.40;;;;;;5095806;28;20178;-74
2022/05/28 09:05:20;;;;;;;3.33;1.35;;;17.10;92.00;;;;;;5103513;28;20185;-74
2022/05/28 09:07:46;;;;;;;1.58;1.13;;;17.40;92.00;;;;;;5100423;28;20238;-75
2022/05/28 09:10:13;;;;;;;2.58;1.38;;;17.80;91.00;;;;;;5099591;28;20195;-74
2022/05/28 09:12:45;;;;;;;2.88;1.10;;;17.70;87.40;;;;;;5105063;28;20173;-75
2022/05/28 09:15:11;;;;;;;1.60;0.90;;;17.50;83.50;;;;;;5101135;28;20181;-75
2022/05/28 09:17:43;;;;;;;1.08;1.00;;;17.10;84.60;;;;;;5110379;28;20537;-75
2022/05/28 09:20:13;;;;;;;4.10;1.10;;;17.00;88.00;;;;;;5098880;28;20747;-75
2022/05/28 09:22:38;;;;;;;1.23;0.73;;;17.00;88.20;;;;;;5102790;28;20188;-78
2022/05/28 09:25:05;;;;;;;1.85;0.80;;;17.00;90.90;;;;;;5096563;28;20200;-76
2022/05/28 09:27:55;;;;;;;1.20;0.88;;;17.20;86.80;;;;;;5099034;28;20194;-76
2022/05/28 09:30:55;;;;;;;2.15;1.08;;;17.50;89.90;;;;;;5098708;28;20627;-76
2022/05/28 09:33:43;;;;;;;1.73;0.95;;;18.90;82.40;;;;;;5105158;28;20190;-78
2022/05/28 09:36:52;;;;;;;1.08;0.82;;;21.20;74.60;;;;;;5095711;28;20175;-76
2022/05/28 09:39:55;;;;;;;1.42;1.33;;;23.60;69.30;;;;;;5046004;28;20215;-77
2022/05/28 09:42:26;;;;;;;1.42;1.00;;;25.60;60.00;;;;;;5041930;28;20199;-76
2022/05/28 09:45:29;;;;;;;2.58;1.08;;;27.60;53.80;;;;;;5078698;28;20186;-77
2022/05/28 09:47:54;;;;;;;0.73;0.65;;;29.20;49.40;;;;;;5082402;28;20179;-76
2022/05/28 09:50:38;;;;;;;1.45;0.68;;;28.80;46.10;;;;;;5087658;28;20656;-77
2022/05/28 09:55:57;;;;;;;2.67;1.08;;;28.40;48.00;;;;;;5088372;28;20551;-77
2022/05/28 09:58:27;;;;;;;1.63;1.17;;;29.00;45.10;;;;;;5106832;28;20203;-76
2022/05/28 10:01:07;;;;;;;2.35;1.15;;;28.50;44.70;;;;;;5102668;28;20186;-74
2022/05/28 10:06:20;;;;;;;2.40;0.82;;;27.70;48.00;;;;;;5096985;28;20180;-76
2022/05/28 10:08:46;;;;;;;3.20;1.58;;;27.30;47.20;;;;;;5095524;28;20284;-77
2022/05/28 10:11:15;;;;;;;1.45;1.15;;;26.90;51.00;;;;;;5097565;28;20297;-76
2022/05/28 10:13:53;;;;;;;3.72;1.42;;;27.70;48.70;;;;;;5088564;28;20256;-76
2022/05/28 10:16:36;;;;;;;1.20;0.88;;;29.00;44.80;;;;;;5092807;28;20174;-76
2022/05/28 10:19:02;;;;;;;2.03;1.00;;;28.60;43.10;;;;;;5097968;28;20194;-76
2022/05/28 10:21:39;;;;;;;3.05;1.00;;;27.90;43.00;;;;;;5098750;28;20270;-76
2022/05/28 10:24:14;;;;;;;1.45;0.82;;;27.20;43.90;;;;;;5102471;27;20257;-76
2022/05/28 10:26:45;;;;;;;2.70;1.08;;;27.50;45.40;;;;;;5094888;28;20170;-76
2022/05/28 10:29:32;;;;;;;1.23;0.80;;;29.20;44.90;;;;;;5099541;28;20218;-76
2022/05/28 10:31:59;;;;;;;1.48;1.00;;;29.20;41.80;;;;;;5098842;28;20185;-76
2022/05/28 10:34:35;;;;;;;0.73;0.73;;;27.70;44.40;;;;;;5090830;28;20178;-76
2022/05/28 10:37:19;;;;;;;1.60;1.10;;;26.40;44.40;;;;;;5097213;28;20178;-77
2022/05/28 10:39:47;;;;;;;1.75;0.82;;;25.40;46.70;;;;;;5093874;28;20603;-76
2022/05/28 10:42:14;;;;;;;1.30;0.90;;;24.20;49.30;;;;;;5096565;28;20175;-77
2022/05/28 10:44:42;;;;;;;3.03;1.10;;;23.10;49.80;;;;;;5087917;28;20186;-75
2022/05/28 10:47:14;;;;;;;1.58;0.80;;;21.70;52.80;;;;;;5100198;28;20177;-76
2022/05/28 10:49:44;;;;;;;0.82;0.82;;;20.90;53.90;;;;;;5100388;28;20558;-76
2022/05/28 10:52:15;;;;;;;1.73;0.82;;;20.40;56.10;;;;;;5092814;28;20211;-76
2022/05/28 10:54:50;;;;;;;0.85;0.73;;;20.50;56.00;;;;;;5096603;28;20189;-77
2022/05/28 10:57:37;;;;;;;1.80;0.90;;;20.60;56.90;;;;;;5098523;28;20539;-76
2022/05/28 11:00:43;;;;;;;3.88;1.50;;;21.10;56.40;;;;;;5093884;28;20225;-76
2022/05/28 11:03:42;;;;;;;0.90;0.85;;;21.90;55.10;;;;;;5064980;28;20187;-76
2022/05/28 11:06:32;;;;;;;2.17;0.60;;;22.80;53.20;;;;;;5107929;28;20647;-76
2022/05/28 11:09:22;;;;;;;1.92;1.05;;;22.90;51.90;;;;;;5098722;28;20237;-76
2022/05/28 11:12:25;;;;;;;1.85;0.70;;;23.00;52.20;;;;;;5092695;28;20182;-75
2022/05/28 11:14:56;;;;;;;1.63;0.88;;;23.00;51.80;;;;;;5098483;28;20202;-75
2022/05/28 11:17:41;;;;;;;1.10;1.00;;;23.00;53.90;;;;;;5100678;28;20190;-76
2022/05/28 11:20:19;;;;;;;2.20;1.17;;;23.70;53.00;;;;;;5102464;28;20568;-76
2022/05/28 11:23:04;;;;;;;1.98;0.90;;;24.90;52.10;;;;;;5098600;28;20818;-76
2022/05/28 11:25:42;;;;;;;1.08;0.98;;;26.80;47.90;;;;;;5100935;28;20211;-76
2022/05/28 11:28:50;;;;;;;2.58;1.15;;;28.20;46.70;;;;;;5098955;28;20212;-76
2022/05/28 11:31:18;;;;;;;1.38;0.75;;;29.20;43.50;;;;;;5088705;28;20549;-76
2022/05/28 11:33:46;;;;;;;1.38;0.95;;;29.20;42.90;;;;;;5102641;28;20573;-76
2022/05/28 11:36:37;;;;;;;1.13;0.57;;;29.10;41.90;;;;;;5093073;28;20663;-77
2022/05/28 11:39:14;;;;;;;2.08;0.57;;;28.90;42.70;;;;;;5093597;28;20203;-76
2022/05/28 11:41:47;;;;;;;0.93;0.50;;;29.70;42.30;;;;;;5091795;28;20181;-75
2022/05/28 11:44:30;;;;;;;4.90;0.82;;;30.40;40.30;;;;;;5100478;28;20250;-75
2022/05/28 11:47:09;;;;;;;1.92;0.95;;;29.20;40.20;;;;;;5095579;28;20256;-76
2022/05/28 11:53:02;;;;;;;1.05;0.88;;;24.90;45.00;;;;;;5094128;28;20180;-76
2022/05/28 11:55:33;;;;;;;0.85;0.80;;;23.10;47.30;;;;;;5088404;28;20198;-76
2022/05/28 11:58:15;;;;;;;1.20;0.90;;;22.20;49.30;;;;;;5100935;28;20240;-77
2022/05/28 12:00:45;;;;;;;1.73;0.80;;;23.20;48.70;;;;;;5088424;28;20196;-76
2022/05/28 12:03:21;;;;;;;1.92;1.20;;;24.60;49.70;;;;;;5085862;28;20537;-76
2022/05/28 12:05:48;;;;;;;0.73;0.70;;;25.50;47.20;;;;;;5092393;28;20169;-75
2022/05/28 12:08:26;;;;;;;0.90;0.75;;;25.90;47.20;;;;;;5105869;28;20174;-76
2022/05/28 12:10:59;;;;;;;1.25;1.00;;;26.30;46.70;;;;;;5093095;28;20240;-76
2022/05/28 12:13:35;;;;;;;1.45;0.95;;;26.60;45.50;;;;;;5094599;28;20182;-76
2022/05/28 12:16:26;;;;;;;2.53;0.80;;;25.90;45.70;;;;;;5093934;28;20261;-76
2022/05/28 12:18:59;;;;;;;1.63;1.00;;;25.70;46.00;;;;;;5091478;28;20225;-76
2022/05/28 12:21:37;;;;;;;1.90;0.90;;;25.60;46.10;;;;;;5086940;28;20548;-75
2022/05/28 12:24:11;;;;;;;1.25;1.00;;;25.60;47.40;;;;;;5089788;28;20246;-76
2022/05/28 12:27:09;;;;;;;1.00;0.60;;;24.70;46.40;;;;;;5096625;28;20173;-76
2022/05/28 12:29:54;;;;;;;2.05;0.65;;;24.10;48.00;;;;;;5097688;28;20285;-76
2022/05/28 12:32:24;;;;;;;0.88;0.85;;;24.40;47.80;;;;;;5094543;28;20185;-76
2022/05/28 12:35:05;;;;;;;1.27;1.05;;;24.70;48.20;;;;;;5092012;28;20178;-75
2022/05/28 12:37:38;;;;;;;1.73;1.15;;;25.70;47.70;;;;;;5096036;28;20704;-74
2022/05/28 12:40:44;;;;;;;2.45;1.02;;;27.90;44.00;;;;;;5096767;28;20210;-74
2022/05/28 12:43:25;;;;;;;1.73;1.02;;;30.50;40.20;;;;;;5088404;28;20189;-74
2022/05/28 12:45:53;;;;;;;1.35;1.00;;;33.50;37.70;;;;;;5089600;28;20203;-72
2022/05/28 12:48:29;;;;;;;2.10;1.10;;;35.50;35.10;;;;;;5102383;28;20189;-72
2022/05/28 12:51:03;;;;;;;2.20;1.60;;;35.40;34.30;;;;;;5101041;28;20503;-72
2022/05/28 12:53:49;;;;;;;1.27;0.77;;;32.60;36.50;;;;;;5090535;28;20189;-74
2022/05/28 12:56:33;;;;;;;1.50;0.82;;;31.30;37.40;;;;;;5093048;28;20190;-74
2022/05/28 12:59:16;;;;;;;1.35;1.25;;;29.20;40.00;;;;;;5098358;28;20216;-74
2022/05/28 13:02:10;;;;;;;2.10;1.30;;;27.50;42.50;;;;;;5086739;28;20536;-74
2022/05/28 13:04:42;;;;;;;1.02;0.93;;;27.50;42.30;;;;;;5095490;28;20227;-74
2022/05/28 13:07:22;;;;;;;1.15;1.00;;;27.30;41.00;;;;;;5090844;28;20801;-74
2022/05/28 13:09:50;;;;;;;1.52;1.13;;;26.90;43.40;;;;;;5100323;28;20205;-74
2022/05/28 13:12:29;;;;;;;2.25;1.10;;;27.10;42.50;;;;;;5090604;28;20170;-74
2022/05/28 13:14:58;;;;;;;2.38;1.15;;;26.60;42.40;;;;;;5101101;28;20256;-74
2022/05/28 13:17:54;;;;;;;0.90;0.88;;;25.50;44.70;;;;;;5098871;28;20178;-76
2022/05/28 13:20:53;;;;;;;2.85;1.40;;;25.30;45.00;;;;;;5102071;28;20213;-76